Airfield :
LOGIN :

Register | Disclaimer

   EN    FR    IT 

 










Legend :    VFR   Marginal VFR   IFR   Intensive IFR   Very Intensive IFR
Visi :
Ceiling :
>= 8 km
>= 3000ft
5 to 8 km
1000 to 3000 ft
1500m to 5 km
500 to 1000 ft
800 to 1500m
200 to 500 ft
< 800m
< 200 ft
Symbols :   Thunderstorms  Fog  Heavy snow  Heavy precipitations  Wind > 20 kt
SIGMETs :     Misc.  Thunderstorms  Icing  Turbulence  Mountain Waves  Volcanic Ashes






- Airport Elevation : 266 ft
- IATA code : NCL


EGNT - Newcastle

CURRENT METAR :
  • 282120Z VRB02KT 9000 NSC 01/01 Q1013

EXPIRED METARs :
  • 282020Z 25001KT 9000 NSC 01/01 Q1013
  • 281950Z 22004KT 9000 MIFG NSC 00/00 Q1013
  • 281920Z 26003KT 9000 NSC 00/00 Q1012
  • 281850Z 21002KT 9000 R25/1000U BCFG NSC 00/00 Q1012

TAF TAF EGNT
Valid from the 28 at 18:00 until the 29 at 18:00 UTC


281705Z 2818/2918 26004KT 9999 FEW020
BECMG 2818/2821 7000
TEMPO 2818/2911 2000 BR BKN002
PROB30 2900/2909 0600 FG OVC001
TEMPO 2911/2916 9999
ATIS : +44 191 214 3400



MET'MAP, your aeronautical weather chart ! - Copyright ORBIFLY December 2007 - Disclaimer

ORBIFLY MET'MAP TEAM :

Programming & Development : Alexandra Zaïnal
Original concept : Baudouin d'Aumeries
Technical & hardware support : Manuel Goepfert
Assistance : Marc-Olivier Méhu




SOURCES & CREDITS :

   NOAA